Time,TemperatureF,DewpointF,PressureIn,WindDirection,WindDirectionDegrees,WindSpeedMPH,WindSpeedGustMPH,Humidity,HourlyPrecipIn,Conditions,Clouds,dailyrainin,SoftwareType,DateUTC
2013-08-08 00:03:00,61.1,50.1,29.90,SSE,168,0.0,0.0,67,0.00,,CLR,0.00,VWS V14.01,2013-08-08 07:03:00,
2013-08-08 00:08:00,60.8,49.8,29.90,SSE,168,0.0,0.0,67,0.00,,CLR,0.00,VWS V14.01,2013-08-08 07:08:00,
2013-08-08 00:13:00,60.8,49.8,29.90,SSE,168,0.0,0.0,67,0.00,,CLR,0.00,VWS V14.01,2013-08-08 07:13:00,
2013-08-08 00:18:00,60.8,54.6,29.91,SSE,168,0.0,0.0,80,0.00,,CLR,0.00,VWS V14.01,2013-08-08 07:18:00,
2013-08-08 00:23:00,60.8,54.6,29.91,SSE,168,0.0,0.0,80,0.00,,CLR,0.00,VWS V14.01,2013-08-08 07:23:00,
2013-08-08 00:28:00,60.2,54.0,29.91,SSE,168,0.0,0.0,80,0.00,,CLR,0.00,VWS V14.01,2013-08-08 07:28:00,
2013-08-08 00:33:00,60.0,53.8,29.91,SSE,168,0.0,0.0,80,0.00,,CLR,0.00,VWS V14.01,2013-08-08 07:33:00,
2013-08-08 00:39:00,59.9,53.7,29.91,SSE,168,0.0,0.0,80,0.00,,CLR,0.00,VWS V14.01,2013-08-08 07:39:00,
2013-08-08 00:44:00,59.6,53.4,29.91,SSE,168,0.0,0.0,80,0.00,,CLR,0.00,VWS V14.01,2013-08-08 07:44:00,
2013-08-08 00:49:00,59.4,53.2,29.91,SSE,168,0.0,0.0,80,0.00,,CLR,0.00,VWS V14.01,2013-08-08 07:49:00,
2013-08-08 00:54:00,59.4,53.9,29.91,SSE,168,0.0,0.0,82,0.00,,CLR,0.00,VWS V14.01,2013-08-08 07:54:00,
2013-08-08 00:59:00,59.1,53.6,29.91,SSE,168,0.0,0.0,82,0.00,,CLR,0.00,VWS V14.01,2013-08-08 07:59:00,
2013-08-08 01:04:00,59.0,53.8,29.91,SSE,168,0.0,0.0,83,0.00,,CLR,0.00,VWS V14.01,2013-08-08 08:04:00,
2013-08-08 01:09:00,58.8,53.7,29.91,SSE,168,0.0,0.0,83,0.00,,CLR,0.00,VWS V14.01,2013-08-08 08:09:00,
2013-08-08 01:14:00,58.6,53.5,29.91,SSE,168,0.0,0.0,83,0.00,,CLR,0.00,VWS V14.01,2013-08-08 08:14:00,
2013-08-08 01:19:00,58.6,53.8,29.91,SSE,168,0.0,0.0,84,0.00,,CLR,0.00,VWS V14.01,2013-08-08 08:19:00,
2013-08-08 01:24:00,58.8,53.7,29.91,SSE,168,0.0,0.0,83,0.00,,CLR,0.00,VWS V14.01,2013-08-08 08:24:00,
2013-08-08 01:30:00,58.8,53.7,29.91,SSE,168,0.0,0.0,83,0.00,,CLR,0.00,VWS V14.01,2013-08-08 08:30:00,
2013-08-08 01:35:00,59.0,53.5,29.91,SSE,168,0.0,0.0,82,0.00,,CLR,0.00,VWS V14.01,2013-08-08 08:35:00,
2013-08-08 01:40:00,58.8,53.3,29.91,SSE,168,0.0,0.0,82,0.00,,CLR,0.00,VWS V14.01,2013-08-08 08:40:00,
2013-08-08 01:45:00,58.6,53.1,29.91,SSE,168,0.0,0.0,82,0.00,,CLR,0.00,VWS V14.01,2013-08-08 08:45:00,
2013-08-08 01:50:00,58.5,53.0,29.91,SSE,168,0.0,0.0,82,0.00,,CLR,0.00,VWS V14.01,2013-08-08 08:50:00,
2013-08-08 01:55:00,58.5,53.0,29.91,SSE,168,0.0,0.0,82,0.00,,CLR,0.00,VWS V14.01,2013-08-08 08:55:00,
2013-08-08 02:00:00,59.0,53.5,29.91,SSE,168,0.0,0.0,82,0.00,,CLR,0.00,VWS V14.01,2013-08-08 09:00:00,
2013-08-08 02:05:00,59.3,53.8,29.91,SSE,168,0.0,0.0,82,0.00,,CLR,0.00,VWS V14.01,2013-08-08 09:05:00,
2013-08-08 02:10:00,59.3,53.8,29.91,SSE,168,0.0,0.0,82,0.00,,CLR,0.00,VWS V14.01,2013-08-08 09:10:00,
2013-08-08 02:15:00,59.0,53.2,29.91,SSE,168,0.0,0.0,81,0.00,,CLR,0.00,VWS V14.01,2013-08-08 09:15:00,
2013-08-08 02:20:00,58.6,52.8,29.91,SSE,168,0.0,0.0,81,0.00,,CLR,0.00,VWS V14.01,2013-08-08 09:20:00,
2013-08-08 02:25:00,58.5,52.7,29.91,SSE,168,0.0,0.0,81,0.00,,CLR,0.00,VWS V14.01,2013-08-08 09:25:00,
2013-08-08 02:30:00,58.6,52.8,29.91,SSE,168,0.0,0.0,81,0.00,,CLR,0.00,VWS V14.01,2013-08-08 09:30:00,
2013-08-08 02:35:00,58.6,52.8,29.91,SSE,168,0.0,0.0,81,0.00,,CLR,0.00,VWS V14.01,2013-08-08 09:35:00,
2013-08-08 02:41:00,59.1,53.3,29.91,SSE,168,0.0,0.0,81,0.00,,CLR,0.00,VWS V14.01,2013-08-08 09:41:00,
2013-08-08 02:46:00,59.4,52.9,29.91,SSE,168,0.0,1.0,79,0.00,,CLR,0.00,VWS V14.01,2013-08-08 09:46:00,
2013-08-08 02:51:00,59.7,53.2,29.91,SSE,168,0.0,0.0,79,0.00,,CLR,0.00,VWS V14.01,2013-08-08 09:51:00,
2013-08-08 02:56:00,59.7,52.5,29.91,SSE,168,0.0,0.0,77,0.00,,CLR,0.00,VWS V14.01,2013-08-08 09:56:00,
2013-08-08 03:01:00,60.2,53.0,29.91,SSE,168,0.0,0.0,77,0.00,,CLR,0.00,VWS V14.01,2013-08-08 10:01:00,
2013-08-08 03:06:00,59.9,52.7,29.91,SSE,168,0.0,0.0,77,0.00,,CLR,0.00,VWS V14.01,2013-08-08 10:06:00,
2013-08-08 03:11:00,59.9,52.7,29.91,SSE,168,0.0,0.0,77,0.00,,CLR,0.00,VWS V14.01,2013-08-08 10:11:00,
2013-08-08 03:16:00,59.7,52.5,29.91,SSE,168,0.0,0.0,77,0.00,,CLR,0.00,VWS V14.01,2013-08-08 10:16:00,
2013-08-08 03:21:00,59.3,52.1,29.91,SSE,168,0.0,0.0,77,0.00,,CLR,0.00,VWS V14.01,2013-08-08 10:21:00,
2013-08-08 03:26:00,59.0,52.5,29.91,SSE,168,0.0,0.0,79,0.00,,CLR,0.00,VWS V14.01,2013-08-08 10:26:00,
2013-08-08 03:31:00,58.8,52.3,29.91,SSE,168,0.0,0.0,79,0.00,,CLR,0.00,VWS V14.01,2013-08-08 10:31:00,
2013-08-08 03:36:00,58.8,52.3,29.92,SSE,168,0.0,0.0,79,0.00,,CLR,0.00,VWS V14.01,2013-08-08 10:36:00,
2013-08-08 03:41:00,58.5,52.0,29.92,SSE,168,0.0,0.0,79,0.00,,CLR,0.00,VWS V14.01,2013-08-08 10:41:00,
2013-08-08 03:46:00,58.5,52.0,29.92,SSE,168,0.0,0.0,79,0.00,,CLR,0.00,VWS V14.01,2013-08-08 10:46:00,
2013-08-08 03:51:00,58.3,52.2,29.92,SSE,168,0.0,0.0,80,0.00,,CLR,0.00,VWS V14.01,2013-08-08 10:51:00,
2013-08-08 03:56:00,58.3,52.2,29.92,East,97,0.0,0.0,80,0.00,,CLR,0.00,VWS V14.01,2013-08-08 10:56:00,
2013-08-08 04:02:00,58.3,52.2,29.92,East,97,0.0,0.0,80,0.00,,CLR,0.00,VWS V14.01,2013-08-08 11:02:00,
2013-08-08 04:07:00,58.3,52.2,29.92,East,97,0.0,0.0,80,0.00,,CLR,0.00,VWS V14.01,2013-08-08 11:07:00,
2013-08-08 04:12:00,58.3,52.2,29.92,East,97,0.0,0.0,80,0.00,,CLR,0.00,VWS V14.01,2013-08-08 11:12:00,
2013-08-08 04:17:00,58.3,52.2,29.92,East,97,0.0,0.0,80,0.00,,CLR,0.00,VWS V14.01,2013-08-08 11:17:00,
2013-08-08 04:22:00,58.6,52.5,29.92,East,97,0.0,0.0,80,0.00,,CLR,0.00,VWS V14.01,2013-08-08 11:22:00,
2013-08-08 04:27:00,58.5,52.4,29.92,East,97,0.0,0.0,80,0.00,,CLR,0.00,VWS V14.01,2013-08-08 11:27:00,
2013-08-08 04:32:00,58.3,52.2,29.92,East,97,0.0,0.0,80,0.00,,CLR,0.00,VWS V14.01,2013-08-08 11:32:00,
2013-08-08 04:37:00,58.2,52.1,29.92,East,97,0.0,0.0,80,0.00,,CLR,0.00,VWS V14.01,2013-08-08 11:37:00,
2013-08-08 04:42:00,58.2,52.1,29.92,East,97,0.0,0.0,80,0.00,,CLR,0.00,VWS V14.01,2013-08-08 11:42:00,
2013-08-08 04:48:00,58.2,52.1,29.93,East,97,0.0,0.0,80,0.00,,CLR,0.00,VWS V14.01,2013-08-08 11:48:00,
2013-08-08 04:53:00,57.6,51.8,29.93,East,97,0.0,0.0,81,0.00,,CLR,0.00,VWS V14.01,2013-08-08 11:53:00,
2013-08-08 04:58:00,57.5,51.7,29.93,East,97,0.0,0.0,81,0.00,,CLR,0.00,VWS V14.01,2013-08-08 11:58:00,
2013-08-08 05:03:00,57.5,51.7,29.94,East,97,0.0,0.0,81,0.00,,CLR,0.00,VWS V14.01,2013-08-08 12:03:00,
2013-08-08 05:08:00,57.0,51.2,29.94,East,97,0.0,0.0,81,0.00,,CLR,0.00,VWS V14.01,2013-08-08 12:08:00,
2013-08-08 05:13:00,56.9,51.1,29.94,East,97,0.0,0.0,81,0.00,,CLR,0.00,VWS V14.01,2013-08-08 12:13:00,
2013-08-08 05:18:00,56.4,50.7,29.95,East,97,0.0,0.0,81,0.00,,CLR,0.00,VWS V14.01,2013-08-08 12:18:00,
2013-08-08 05:23:00,56.3,50.5,29.95,East,97,0.0,0.0,81,0.00,,CLR,0.00,VWS V14.01,2013-08-08 12:23:00,
2013-08-08 05:28:00,56.3,50.5,29.95,East,97,0.0,0.0,81,0.00,,CLR,0.00,VWS V14.01,2013-08-08 12:28:00,
2013-08-08 05:33:00,55.8,50.1,29.95,East,97,0.0,0.0,81,0.00,,CLR,0.00,VWS V14.01,2013-08-08 12:33:00,
2013-08-08 05:38:00,55.8,50.1,29.95,East,97,0.0,0.0,81,0.00,,CLR,0.00,VWS V14.01,2013-08-08 12:38:00,
2013-08-08 05:43:00,55.7,50.0,29.95,East,97,0.0,0.0,81,0.00,,CLR,0.00,VWS V14.01,2013-08-08 12:43:00,
2013-08-08 05:48:00,55.7,50.0,29.96,East,97,0.0,0.0,81,0.00,,CLR,0.00,VWS V14.01,2013-08-08 12:48:00,
2013-08-08 05:53:00,55.5,49.8,29.96,East,97,0.0,0.0,81,0.00,,CLR,0.00,VWS V14.01,2013-08-08 12:53:00,
2013-08-08 05:59:00,55.5,51.7,29.96,East,97,0.0,0.0,87,0.00,,CLR,0.00,VWS V14.01,2013-08-08 12:59:00,
2013-08-08 06:04:00,55.4,51.6,29.96,East,97,0.0,0.0,87,0.00,,CLR,0.00,VWS V14.01,2013-08-08 13:04:00,
2013-08-08 06:09:00,55.4,51.6,29.96,East,97,0.0,0.0,87,0.00,,CLR,0.00,VWS V14.01,2013-08-08 13:09:00,
2013-08-08 06:14:00,55.4,51.6,29.96,East,97,0.0,0.0,87,0.00,,CLR,0.00,VWS V14.01,2013-08-08 13:14:00,
2013-08-08 06:19:00,55.5,51.7,29.97,East,97,0.0,0.0,87,0.00,,CLR,0.00,VWS V14.01,2013-08-08 13:19:00,
2013-08-08 06:24:00,55.5,51.7,29.97,East,97,0.0,0.0,87,0.00,,CLR,0.00,VWS V14.01,2013-08-08 13:24:00,
2013-08-08 06:29:00,55.5,51.7,29.97,East,97,0.0,0.0,87,0.00,,CLR,0.00,VWS V14.01,2013-08-08 13:29:00,
2013-08-08 06:34:00,56.3,52.5,29.97,WNW,301,0.0,0.0,87,0.00,,CLR,0.00,VWS V14.01,2013-08-08 13:34:00,
2013-08-08 06:39:00,56.9,53.1,29.97,WNW,301,0.0,0.0,87,0.00,,CLR,0.00,VWS V14.01,2013-08-08 13:39:00,
2013-08-08 06:44:00,56.9,53.1,29.97,WNW,301,0.0,0.0,87,0.00,,CLR,0.00,VWS V14.01,2013-08-08 13:44:00,
2013-08-08 06:49:00,57.9,54.1,29.97,WNW,301,0.0,0.0,87,0.00,,CLR,0.00,VWS V14.01,2013-08-08 13:49:00,
2013-08-08 06:54:00,57.9,54.1,29.97,WNW,301,0.0,0.0,87,0.00,,CLR,0.00,VWS V14.01,2013-08-08 13:54:00,
2013-08-08 06:59:00,57.9,54.1,29.97,WNW,301,0.0,0.0,87,0.00,,CLR,0.00,VWS V14.01,2013-08-08 13:59:00,
2013-08-08 07:04:00,57.9,54.1,29.97,WNW,301,0.0,0.0,87,0.00,,CLR,0.00,VWS V14.01,2013-08-08 14:04:00,
2013-08-08 07:09:00,60.9,57.0,29.97,WNW,301,0.0,0.0,87,0.00,,CLR,0.00,VWS V14.01,2013-08-08 14:09:00,
2013-08-08 07:15:00,61.4,57.5,29.97,WNW,301,0.0,0.0,87,0.00,,CLR,0.00,VWS V14.01,2013-08-08 14:15:00,
2013-08-08 07:20:00,61.4,57.5,29.97,WNW,301,0.0,0.0,87,0.00,,CLR,0.00,VWS V14.01,2013-08-08 14:20:00,
2013-08-08 07:25:00,62.8,58.9,29.97,WNW,301,0.0,0.0,87,0.00,,CLR,0.00,VWS V14.01,2013-08-08 14:25:00,
2013-08-08 07:30:00,62.8,58.9,29.97,WNW,301,0.0,0.0,87,0.00,,CLR,0.00,VWS V14.01,2013-08-08 14:30:00,
2013-08-08 07:35:00,62.8,58.9,29.97,WNW,301,0.0,0.0,87,0.00,,CLR,0.00,VWS V14.01,2013-08-08 14:35:00,
2013-08-08 07:40:00,64.2,60.3,29.97,ESE,120,0.0,0.0,87,0.00,,CLR,0.00,VWS V14.01,2013-08-08 14:40:00,
2013-08-08 07:45:00,64.2,54.2,29.97,ESE,106,0.0,0.0,70,0.00,,CLR,0.00,VWS V14.01,2013-08-08 14:45:00,
2013-08-08 07:50:00,64.2,54.2,29.97,ESE,103,0.0,0.0,70,0.00,,CLR,0.00,VWS V14.01,2013-08-08 14:50:00,
2013-08-08 07:55:00,64.2,54.2,29.97,ESE,103,0.0,0.0,70,0.00,,CLR,0.00,VWS V14.01,2013-08-08 14:55:00,
2013-08-08 08:01:00,65.8,55.8,29.97,ESE,103,0.0,0.0,70,0.00,,CLR,0.00,VWS V14.01,2013-08-08 15:01:00,
2013-08-08 08:06:00,66.3,56.2,29.98,ESE,103,0.0,0.0,70,0.00,,CLR,0.00,VWS V14.01,2013-08-08 15:06:00,
2013-08-08 08:11:00,66.6,56.5,29.98,ESE,103,0.0,0.0,70,0.00,,CLR,0.00,VWS V14.01,2013-08-08 15:11:00,
2013-08-08 08:16:00,67.3,56.8,29.98,ESE,103,0.0,0.0,69,0.00,,CLR,0.00,VWS V14.01,2013-08-08 15:16:00,
2013-08-08 08:21:00,67.8,57.3,29.97,ESE,103,0.0,0.0,69,0.00,,CLR,0.00,VWS V14.01,2013-08-08 15:21:00,
2013-08-08 08:26:00,67.9,57.4,29.97,ESE,103,0.0,0.0,69,0.00,,CLR,0.00,VWS V14.01,2013-08-08 15:26:00,
2013-08-08 08:31:00,67.9,57.0,29.97,ESE,103,0.0,0.0,68,0.00,,CLR,0.00,VWS V14.01,2013-08-08 15:31:00,
2013-08-08 08:36:00,67.9,56.1,29.97,ESE,103,0.0,0.0,66,0.00,,CLR,0.00,VWS V14.01,2013-08-08 15:36:00,
2013-08-08 08:41:00,67.9,56.1,29.97,ESE,103,0.0,0.0,66,0.00,,CLR,0.00,VWS V14.01,2013-08-08 15:41:00,
2013-08-08 08:47:00,67.9,56.1,29.97,ESE,103,2.0,2.0,66,0.00,,CLR,0.00,VWS V14.01,2013-08-08 15:47:00,
2013-08-08 08:52:00,67.9,56.1,29.97,ESE,106,0.0,3.0,66,0.00,,CLR,0.00,VWS V14.01,2013-08-08 15:52:00,
2013-08-08 08:57:00,67.9,56.1,29.97,ESE,106,0.0,0.0,66,0.00,,CLR,0.00,VWS V14.01,2013-08-08 15:57:00,
2013-08-08 09:02:00,67.9,56.1,29.97,ESE,104,0.0,0.0,66,0.00,,CLR,0.00,VWS V14.01,2013-08-08 16:02:00,
2013-08-08 09:07:00,67.9,56.1,29.97,ESE,104,0.0,0.0,66,0.00,,CLR,0.00,VWS V14.01,2013-08-08 16:07:00,
2013-08-08 09:12:00,71.9,59.9,29.97,ESE,112,0.0,0.0,66,0.00,,CLR,0.00,VWS V14.01,2013-08-08 16:12:00,
2013-08-08 09:17:00,72.3,60.3,29.97,ESE,112,0.0,0.0,66,0.00,,CLR,0.00,VWS V14.01,2013-08-08 16:17:00,
2013-08-08 09:22:00,73.0,61.0,29.97,ESE,112,0.0,0.0,66,0.00,,CLR,0.00,VWS V14.01,2013-08-08 16:22:00,
2013-08-08 09:27:00,74.0,61.9,29.97,ESE,112,0.0,0.0,66,0.00,,CLR,0.00,VWS V14.01,2013-08-08 16:27:00,
2013-08-08 09:32:00,74.0,61.9,29.97,ESE,112,0.0,0.0,66,0.00,,CLR,0.00,VWS V14.01,2013-08-08 16:32:00,
2013-08-08 09:37:00,74.2,62.1,29.97,ESE,112,0.0,0.0,66,0.00,,CLR,0.00,VWS V14.01,2013-08-08 16:37:00,
2013-08-08 09:42:00,74.9,58.7,29.97,ESE,112,0.0,0.0,57,0.00,,CLR,0.00,VWS V14.01,2013-08-08 16:42:00,
2013-08-08 09:47:00,74.9,58.7,29.97,ESE,112,0.0,0.0,57,0.00,,CLR,0.00,VWS V14.01,2013-08-08 16:47:00,
2013-08-08 09:52:00,74.9,58.7,29.97,ESE,112,0.0,0.0,57,0.00,,CLR,0.00,VWS V14.01,2013-08-08 16:52:00,
2013-08-08 09:57:00,74.9,58.7,29.97,ESE,112,0.0,0.0,57,0.00,,CLR,0.00,VWS V14.01,2013-08-08 16:57:00,
2013-08-08 10:03:00,74.9,58.7,29.97,ESE,112,0.0,0.0,57,0.00,,CLR,0.00,VWS V14.01,2013-08-08 17:03:00,
2013-08-08 10:08:00,76.6,60.2,29.97,ESE,112,0.0,0.0,57,0.00,,CLR,0.00,VWS V14.01,2013-08-08 17:08:00,
2013-08-08 10:13:00,77.7,61.3,29.97,ESE,112,0.0,0.0,57,0.00,,CLR,0.00,VWS V14.01,2013-08-08 17:13:00,
2013-08-08 10:18:00,77.8,61.4,29.97,ESE,112,0.0,0.0,57,0.00,,CLR,0.00,VWS V14.01,2013-08-08 17:18:00,
2013-08-08 10:23:00,78.7,62.2,29.97,ESE,112,0.0,0.0,57,0.00,,CLR,0.00,VWS V14.01,2013-08-08 17:23:00,
2013-08-08 10:28:00,78.7,62.2,29.97,ESE,112,0.0,0.0,57,0.00,,CLR,0.00,VWS V14.01,2013-08-08 17:28:00,
2013-08-08 10:33:00,79.1,62.6,29.97,ESE,112,0.0,0.0,57,0.00,,CLR,0.00,VWS V14.01,2013-08-08 17:33:00,
2013-08-08 10:38:00,79.3,62.8,29.97,ESE,112,0.0,0.0,57,0.00,,CLR,0.00,VWS V14.01,2013-08-08 17:38:00,
2013-08-08 10:43:00,79.6,63.0,29.97,ESE,112,0.0,0.0,57,0.00,,CLR,0.00,VWS V14.01,2013-08-08 17:43:00,
2013-08-08 10:49:00,80.2,63.6,29.97,ESE,112,0.0,0.0,57,0.00,,CLR,0.00,VWS V14.01,2013-08-08 17:49:00,
2013-08-08 10:54:00,80.6,64.0,29.97,ESE,112,0.0,0.0,57,0.00,,CLR,0.00,VWS V14.01,2013-08-08 17:54:00,
2013-08-08 10:59:00,80.8,64.2,29.97,ESE,112,0.0,0.0,57,0.00,,CLR,0.00,VWS V14.01,2013-08-08 17:59:00,
2013-08-08 11:04:00,81.5,58.1,29.97,ESE,112,0.0,0.0,45,0.00,,CLR,0.00,VWS V14.01,2013-08-08 18:04:00,
2013-08-08 11:09:00,82.1,55.4,29.97,ESE,112,2.0,2.0,40,0.00,,CLR,0.00,VWS V14.01,2013-08-08 18:09:00,
2013-08-08 11:14:00,82.1,53.3,29.97,ESE,112,0.0,0.0,37,0.00,,CLR,0.00,VWS V14.01,2013-08-08 18:14:00,
2013-08-08 11:19:00,82.1,56.1,29.96,ESE,112,0.0,0.0,41,0.00,,CLR,0.00,VWS V14.01,2013-08-08 18:19:00,
2013-08-08 11:24:00,82.1,53.3,29.96,ESE,112,0.0,0.0,37,0.00,,CLR,0.00,VWS V14.01,2013-08-08 18:24:00,
2013-08-08 11:29:00,82.2,51.8,29.96,ESE,112,0.0,0.0,35,0.00,,CLR,0.00,VWS V14.01,2013-08-08 18:29:00,
2013-08-08 11:35:00,82.6,54.5,29.96,ESE,112,0.0,1.0,38,0.00,,CLR,0.00,VWS V14.01,2013-08-08 18:35:00,
2013-08-08 11:40:00,82.6,55.2,29.96,ESE,112,0.0,0.0,39,0.00,,CLR,0.00,VWS V14.01,2013-08-08 18:40:00,
2013-08-08 11:45:00,82.6,55.2,29.96,ESE,112,0.0,0.0,39,0.00,,CLR,0.00,VWS V14.01,2013-08-08 18:45:00,
2013-08-08 11:50:00,82.8,57.4,29.96,ESE,112,0.0,0.0,42,0.00,,CLR,0.00,VWS V14.01,2013-08-08 18:50:00,
2013-08-08 11:55:00,83.4,55.2,29.96,ESE,112,0.0,0.0,38,0.00,,CLR,0.00,VWS V14.01,2013-08-08 18:55:00,
2013-08-08 12:00:00,83.6,56.0,29.96,ESE,112,0.0,0.0,39,0.00,,CLR,0.00,VWS V14.01,2013-08-08 19:00:00,
2013-08-08 12:05:00,84.2,55.9,29.96,ESE,112,0.0,0.0,38,0.00,,CLR,0.00,VWS V14.01,2013-08-08 19:05:00,
2013-08-08 12:10:00,84.2,55.9,29.96,ESE,112,0.0,0.0,38,0.00,,CLR,0.00,VWS V14.01,2013-08-08 19:10:00,
2013-08-08 12:15:00,85.3,56.8,29.96,ESE,112,0.0,0.0,38,0.00,,CLR,0.00,VWS V14.01,2013-08-08 19:15:00,
2013-08-08 12:20:00,85.7,57.2,29.95,ESE,112,0.0,0.0,38,0.00,,CLR,0.00,VWS V14.01,2013-08-08 19:20:00,
2013-08-08 12:25:00,85.7,57.9,29.95,ESE,112,0.0,0.0,39,0.00,,CLR,0.00,VWS V14.01,2013-08-08 19:25:00,
2013-08-08 12:30:00,85.0,57.3,29.95,ESE,112,0.0,0.0,39,0.00,,CLR,0.00,VWS V14.01,2013-08-08 19:30:00,
2013-08-08 12:35:00,85.3,57.6,29.95,ESE,112,0.0,0.0,39,0.00,,CLR,0.00,VWS V14.01,2013-08-08 19:35:00,
2013-08-08 12:41:00,85.3,57.6,29.95,ESE,112,0.0,0.0,39,0.00,,CLR,0.00,VWS V14.01,2013-08-08 19:41:00,
2013-08-08 12:46:00,85.9,58.1,29.95,ESE,112,0.0,0.0,39,0.00,,CLR,0.00,VWS V14.01,2013-08-08 19:46:00,
2013-08-08 12:51:00,86.1,58.3,29.94,ESE,112,0.0,0.0,39,0.00,,CLR,0.00,VWS V14.01,2013-08-08 19:51:00,
2013-08-08 12:56:00,86.1,58.3,29.94,ESE,112,0.0,0.0,39,0.00,,CLR,0.00,VWS V14.01,2013-08-08 19:56:00,
2013-08-08 13:01:00,86.1,58.3,29.94,ESE,112,0.0,0.0,39,0.00,,CLR,0.00,VWS V14.01,2013-08-08 20:01:00,
2013-08-08 13:06:00,86.3,58.5,29.94,ESE,112,0.0,0.0,39,0.00,,CLR,0.00,VWS V14.01,2013-08-08 20:06:00,
2013-08-08 13:11:00,86.7,58.8,29.94,ESE,112,0.0,0.0,39,0.00,,CLR,0.00,VWS V14.01,2013-08-08 20:11:00,
2013-08-08 13:16:00,87.1,59.2,29.94,ESE,112,0.0,0.0,39,0.00,,CLR,0.00,VWS V14.01,2013-08-08 20:16:00,
2013-08-08 13:21:00,87.7,59.7,29.94,ESE,112,0.0,0.0,39,0.00,,CLR,0.00,VWS V14.01,2013-08-08 20:21:00,
2013-08-08 13:27:00,87.5,59.5,29.94,ESE,112,0.0,0.0,39,0.00,,CLR,0.00,VWS V14.01,2013-08-08 20:27:00,
2013-08-08 13:32:00,87.5,59.5,29.94,ESE,112,0.0,0.0,39,0.00,,CLR,0.00,VWS V14.01,2013-08-08 20:32:00,
2013-08-08 13:37:00,87.5,59.5,29.94,ESE,112,0.0,0.0,39,0.00,,CLR,0.00,VWS V14.01,2013-08-08 20:37:00,
2013-08-08 13:42:00,87.5,59.5,29.94,ESE,112,0.0,0.0,39,0.00,,CLR,0.00,VWS V14.01,2013-08-08 20:42:00,
2013-08-08 13:47:00,87.5,59.5,29.94,ESE,112,0.0,0.0,39,0.00,,CLR,0.00,VWS V14.01,2013-08-08 20:47:00,
2013-08-08 13:52:00,87.5,59.5,29.93,ESE,112,0.0,0.0,39,0.00,,CLR,0.00,VWS V14.01,2013-08-08 20:52:00,
2013-08-08 13:57:00,87.7,59.7,29.93,ESE,112,0.0,0.0,39,0.00,,CLR,0.00,VWS V14.01,2013-08-08 20:57:00,
2013-08-08 14:02:00,88.6,60.5,29.93,ESE,112,0.0,0.0,39,0.00,,FEW050,0.00,VWS V14.01,2013-08-08 21:02:00,
2013-08-08 14:07:00,88.6,60.5,29.93,ESE,112,0.0,0.0,39,0.00,,FEW050,0.00,VWS V14.01,2013-08-08 21:07:00,
2013-08-08 14:12:00,88.6,60.5,29.93,ESE,112,0.0,0.0,39,0.00,,FEW050,0.00,VWS V14.01,2013-08-08 21:12:00,
2013-08-08 14:18:00,88.6,60.5,29.93,ESE,112,0.0,0.0,39,0.00,,FEW050,0.00,VWS V14.01,2013-08-08 21:18:00,
2013-08-08 14:23:00,88.8,60.7,29.93,ESE,112,0.0,0.0,39,0.00,,FEW050,0.00,VWS V14.01,2013-08-08 21:23:00,
2013-08-08 14:28:00,88.8,60.7,29.93,ESE,112,0.0,0.0,39,0.00,,FEW050,0.00,VWS V14.01,2013-08-08 21:28:00,
2013-08-08 14:33:00,88.8,60.7,29.92,ESE,112,0.0,0.0,39,0.00,,FEW050,0.00,VWS V14.01,2013-08-08 21:33:00,
2013-08-08 14:38:00,89.4,61.2,29.92,ESE,112,0.0,0.0,39,0.00,,FEW050,0.00,VWS V14.01,2013-08-08 21:38:00,
2013-08-08 14:43:00,89.6,61.4,29.92,ESE,112,0.0,0.0,39,0.00,,FEW050,0.00,VWS V14.01,2013-08-08 21:43:00,
2013-08-08 14:48:00,89.6,52.2,29.92,ESE,112,0.0,0.0,28,0.00,,FEW050,0.00,VWS V14.01,2013-08-08 21:48:00,
2013-08-08 14:54:00,90.0,52.5,29.92,ESE,112,0.0,0.0,28,0.00,,FEW050,0.00,VWS V14.01,2013-08-08 21:54:00,
2013-08-08 14:59:00,90.5,53.0,29.92,ESE,112,0.0,0.0,28,0.00,,FEW050,0.00,VWS V14.01,2013-08-08 21:59:00,
2013-08-08 15:04:00,90.3,52.8,29.92,ESE,112,0.0,0.0,28,0.00,,CLR,0.00,VWS V14.01,2013-08-08 22:04:00,
2013-08-08 15:10:00,90.3,52.8,29.92,ESE,112,0.0,0.0,28,0.00,,CLR,0.00,VWS V14.01,2013-08-08 22:10:00,
2013-08-08 15:15:00,90.3,52.8,29.92,ESE,112,0.0,0.0,28,0.00,,CLR,0.00,VWS V14.01,2013-08-08 22:15:00,
2013-08-08 15:20:00,90.7,53.2,29.91,ESE,112,0.0,0.0,28,0.00,,CLR,0.00,VWS V14.01,2013-08-08 22:20:00,
2013-08-08 15:25:00,90.5,53.0,29.91,ESE,112,0.0,0.0,28,0.00,,CLR,0.00,VWS V14.01,2013-08-08 22:25:00,
2013-08-08 15:31:00,90.3,52.8,29.91,ESE,112,0.0,0.0,28,0.00,,CLR,0.00,VWS V14.01,2013-08-08 22:31:00,
2013-08-08 15:37:00,90.3,52.8,29.91,ESE,112,0.0,0.0,28,0.00,,CLR,0.00,VWS V14.01,2013-08-08 22:37:00,
2013-08-08 15:42:00,90.3,51.8,29.91,ESE,112,0.0,0.0,27,0.00,,CLR,0.00,VWS V14.01,2013-08-08 22:42:00,
2013-08-08 15:47:00,90.0,49.5,29.91,ESE,112,0.0,0.0,25,0.00,,CLR,0.00,VWS V14.01,2013-08-08 22:47:00,
2013-08-08 15:52:00,89.8,51.4,29.91,ESE,112,0.0,0.0,27,0.00,,CLR,0.00,VWS V14.01,2013-08-08 22:52:00,
2013-08-08 15:57:00,89.8,51.4,29.91,ESE,112,0.0,0.0,27,0.00,,CLR,0.00,VWS V14.01,2013-08-08 22:57:00,
2013-08-08 16:02:00,89.8,51.4,29.90,ESE,112,0.0,0.0,27,0.00,,CLR,0.00,VWS V14.01,2013-08-08 23:02:00,
2013-08-08 16:07:00,89.8,51.4,29.90,ESE,112,0.0,0.0,27,0.00,,CLR,0.00,VWS V14.01,2013-08-08 23:07:00,
2013-08-08 16:12:00,89.8,50.4,29.90,ESE,112,0.0,0.0,26,0.00,,CLR,0.00,VWS V14.01,2013-08-08 23:12:00,
2013-08-08 16:17:00,91.3,51.7,29.90,ESE,112,0.0,0.0,26,0.00,,CLR,0.00,VWS V14.01,2013-08-08 23:17:00,
2013-08-08 16:22:00,91.5,51.8,29.90,ESE,112,0.0,0.0,26,0.00,,CLR,0.00,VWS V14.01,2013-08-08 23:22:00,
2013-08-08 16:27:00,92.2,52.4,29.90,ESE,112,0.0,0.0,26,0.00,,CLR,0.00,VWS V14.01,2013-08-08 23:27:00,
2013-08-08 16:33:00,92.6,52.7,29.90,ESE,112,0.0,0.0,26,0.00,,CLR,0.00,VWS V14.01,2013-08-08 23:33:00,
2013-08-08 16:38:00,92.0,48.9,29.90,ESE,112,0.0,0.0,23,0.00,,CLR,0.00,VWS V14.01,2013-08-08 23:38:00,
2013-08-08 16:43:00,91.7,48.7,29.90,ESE,112,0.0,0.0,23,0.00,,CLR,0.00,VWS V14.01,2013-08-08 23:43:00,
2013-08-08 16:48:00,91.7,48.7,29.90,ESE,112,0.0,0.0,23,0.00,,CLR,0.00,VWS V14.01,2013-08-08 23:48:00,
2013-08-08 16:54:00,91.3,48.3,29.90,ESE,112,0.0,0.0,23,0.00,,CLR,0.00,VWS V14.01,2013-08-08 23:54:00,
2013-08-08 16:59:00,91.3,48.3,29.90,ESE,112,0.0,0.0,23,0.00,,CLR,0.00,VWS V14.01,2013-08-08 23:59:00,
2013-08-08 17:04:00,91.3,48.3,29.89,ESE,112,0.0,0.0,23,0.00,,CLR,0.00,VWS V14.01,2013-08-09 00:04:00,
2013-08-08 17:09:00,91.3,48.3,29.89,ESE,112,0.0,0.0,23,0.00,,CLR,0.00,VWS V14.01,2013-08-09 00:09:00,
2013-08-08 17:14:00,91.3,48.3,29.89,ESE,112,0.0,0.0,23,0.00,,CLR,0.00,VWS V14.01,2013-08-09 00:14:00,
2013-08-08 17:20:00,91.3,48.3,29.89,ESE,112,0.0,0.0,23,0.00,,CLR,0.00,VWS V14.01,2013-08-09 00:20:00,
2013-08-08 17:25:00,91.3,48.3,29.89,ESE,112,0.0,0.0,23,0.00,,CLR,0.00,VWS V14.01,2013-08-09 00:25:00,
2013-08-08 17:30:00,91.3,48.3,29.89,ESE,112,0.0,0.0,23,0.00,,CLR,0.00,VWS V14.01,2013-08-09 00:30:00,
2013-08-08 17:35:00,91.7,48.7,29.89,ESE,112,0.0,0.0,23,0.00,,CLR,0.00,VWS V14.01,2013-08-09 00:35:00,
2013-08-08 17:40:00,91.5,48.5,29.89,ESE,112,0.0,0.0,23,0.00,,CLR,0.00,VWS V14.01,2013-08-09 00:40:00,
2013-08-08 17:45:00,91.5,48.5,29.89,ESE,112,0.0,0.0,23,0.00,,CLR,0.00,VWS V14.01,2013-08-09 00:45:00,
2013-08-08 17:50:00,90.7,47.8,29.88,ESE,112,0.0,0.0,23,0.00,,CLR,0.00,VWS V14.01,2013-08-09 00:50:00,
2013-08-08 17:55:00,90.3,47.5,29.88,ESE,112,0.0,0.0,23,0.00,,CLR,0.00,VWS V14.01,2013-08-09 00:55:00,
2013-08-08 18:01:00,89.8,47.1,29.88,ESE,112,0.0,0.0,23,0.00,,CLR,0.00,VWS V14.01,2013-08-09 01:01:00,
2013-08-08 18:06:00,89.6,46.9,29.88,ESE,112,0.0,0.0,23,0.00,,CLR,0.00,VWS V14.01,2013-08-09 01:06:00,
2013-08-08 18:11:00,89.0,46.4,29.88,ESE,112,0.0,0.0,23,0.00,,CLR,0.00,VWS V14.01,2013-08-09 01:11:00,
2013-08-08 18:16:00,88.0,45.6,29.88,ESE,112,0.0,0.0,23,0.00,,CLR,0.00,VWS V14.01,2013-08-09 01:16:00,
2013-08-08 18:21:00,86.9,44.7,29.88,ESE,112,0.0,0.0,23,0.00,,CLR,0.00,VWS V14.01,2013-08-09 01:21:00,
2013-08-08 18:26:00,86.1,44.0,29.88,ESE,112,0.0,0.0,23,0.00,,CLR,0.00,VWS V14.01,2013-08-09 01:26:00,
2013-08-08 18:31:00,85.0,53.5,29.88,ESE,112,0.0,0.0,34,0.00,,CLR,0.00,VWS V14.01,2013-08-09 01:31:00,
2013-08-08 18:36:00,85.0,53.5,29.88,ESE,112,0.0,0.0,34,0.00,,CLR,0.00,VWS V14.01,2013-08-09 01:36:00,
2013-08-08 18:41:00,85.0,53.5,29.88,ESE,112,0.0,0.0,34,0.00,,CLR,0.00,VWS V14.01,2013-08-09 01:41:00,
2013-08-08 18:46:00,85.0,53.5,29.88,ESE,112,0.0,0.0,34,0.00,,CLR,0.00,VWS V14.01,2013-08-09 01:46:00,
2013-08-08 18:52:00,85.0,53.5,29.88,ESE,112,0.0,0.0,34,0.00,,CLR,0.00,VWS V14.01,2013-08-09 01:52:00,
2013-08-08 18:57:00,81.9,50.8,29.88,ESE,112,0.0,0.0,34,0.00,,CLR,0.00,VWS V14.01,2013-08-09 01:57:00,
2013-08-08 19:03:00,81.3,50.3,29.88,ESE,112,0.0,0.0,34,0.00,,CLR,0.00,VWS V14.01,2013-08-09 02:03:00,
2013-08-08 19:08:00,81.3,50.3,29.88,ESE,112,0.0,0.0,34,0.00,,CLR,0.00,VWS V14.01,2013-08-09 02:08:00,
2013-08-08 19:13:00,80.6,49.7,29.88,ESE,112,0.0,0.0,34,0.00,,CLR,0.00,VWS V14.01,2013-08-09 02:13:00,
2013-08-08 19:18:00,80.2,49.3,29.87,ESE,112,0.0,0.0,34,0.00,,CLR,0.00,VWS V14.01,2013-08-09 02:18:00,
2013-08-08 19:23:00,80.0,49.1,29.87,ESE,112,0.0,0.0,34,0.00,,CLR,0.00,VWS V14.01,2013-08-09 02:23:00,
2013-08-08 19:29:00,79.1,48.3,29.87,ESE,112,0.0,0.0,34,0.00,,CLR,0.00,VWS V14.01,2013-08-09 02:29:00,
2013-08-08 19:34:00,79.1,48.3,29.87,ESE,112,0.0,0.0,34,0.00,,CLR,0.00,VWS V14.01,2013-08-09 02:34:00,
2013-08-08 19:39:00,78.4,61.4,29.87,ESE,112,0.0,0.0,56,0.00,,CLR,0.00,VWS V14.01,2013-08-09 02:39:00,
2013-08-08 19:44:00,78.0,61.0,29.87,ESE,112,0.0,0.0,56,0.00,,CLR,0.00,VWS V14.01,2013-08-09 02:44:00,
2013-08-08 19:49:00,78.0,61.0,29.87,ESE,112,0.0,0.0,56,0.00,,CLR,0.00,VWS V14.01,2013-08-09 02:49:00,
2013-08-08 19:54:00,76.8,61.4,29.87,ESE,112,0.0,0.0,59,0.00,,CLR,0.00,VWS V14.01,2013-08-09 02:54:00,
2013-08-08 19:59:00,76.6,62.2,29.87,ESE,112,0.0,0.0,61,0.00,,CLR,0.00,VWS V14.01,2013-08-09 02:59:00,
2013-08-08 20:04:00,75.9,61.5,29.87,ESE,112,0.0,0.0,61,0.00,,CLR,0.00,VWS V14.01,2013-08-09 03:04:00,
2013-08-08 20:09:00,75.0,60.7,29.87,ESE,112,0.0,0.0,61,0.00,,CLR,0.00,VWS V14.01,2013-08-09 03:09:00,
2013-08-08 20:14:00,74.9,60.6,29.87,ESE,112,0.0,0.0,61,0.00,,CLR,0.00,VWS V14.01,2013-08-09 03:14:00,
2013-08-08 20:20:00,74.0,59.7,29.88,ESE,112,0.0,0.0,61,0.00,,CLR,0.00,VWS V14.01,2013-08-09 03:20:00,
2013-08-08 20:25:00,73.5,59.7,29.88,ESE,112,0.0,0.0,62,0.00,,CLR,0.00,VWS V14.01,2013-08-09 03:25:00,
2013-08-08 20:30:00,73.5,59.7,29.88,ESE,112,0.0,0.0,62,0.00,,CLR,0.00,VWS V14.01,2013-08-09 03:30:00,
2013-08-08 20:35:00,73.0,59.2,29.88,ESE,112,0.0,0.0,62,0.00,,CLR,0.00,VWS V14.01,2013-08-09 03:35:00,
2013-08-08 20:40:00,72.8,59.0,29.88,ESE,112,0.0,0.0,62,0.00,,CLR,0.00,VWS V14.01,2013-08-09 03:40:00,
2013-08-08 20:45:00,72.6,58.8,29.88,ESE,112,0.0,0.0,62,0.00,,CLR,0.00,VWS V14.01,2013-08-09 03:45:00,
2013-08-08 20:50:00,72.3,58.6,29.88,ESE,112,0.0,0.0,62,0.00,,CLR,0.00,VWS V14.01,2013-08-09 03:50:00,
2013-08-08 20:56:00,71.9,58.2,29.88,ESE,112,0.0,0.0,62,0.00,,CLR,0.00,VWS V14.01,2013-08-09 03:56:00,
2013-08-08 21:01:00,71.9,58.2,29.88,ESE,112,0.0,0.0,62,0.00,,CLR,0.00,VWS V14.01,2013-08-09 04:01:00,
2013-08-08 21:02:00,71.9,58.2,29.88,ESE,112,0.0,0.0,62,0.00,,CLR,0.00,VWS V14.01,2013-08-09 04:02:00,
2013-08-08 21:07:00,71.1,57.4,29.88,ESE,112,0.0,0.0,62,0.00,,CLR,0.00,VWS V14.01,2013-08-09 04:07:00,
2013-08-08 21:12:00,70.9,57.2,29.88,ESE,112,0.0,0.0,62,0.00,,CLR,0.00,VWS V14.01,2013-08-09 04:12:00,
2013-08-08 21:17:00,70.9,57.2,29.89,ESE,112,0.0,0.0,62,0.00,,CLR,0.00,VWS V14.01,2013-08-09 04:17:00,
2013-08-08 21:22:00,70.1,56.5,29.89,ESE,112,0.0,0.0,62,0.00,,CLR,0.00,VWS V14.01,2013-08-09 04:22:00,
2013-08-08 21:27:00,69.4,55.8,29.89,ESE,112,0.0,0.0,62,0.00,,CLR,0.00,VWS V14.01,2013-08-09 04:27:00,
2013-08-08 21:32:00,69.3,55.7,29.89,ESE,112,0.0,0.0,62,0.00,,CLR,0.00,VWS V14.01,2013-08-09 04:32:00,
2013-08-08 21:37:00,69.3,59.9,29.89,ESE,112,0.0,0.0,72,0.00,,CLR,0.00,VWS V14.01,2013-08-09 04:37:00,
2013-08-08 21:43:00,68.8,59.4,29.89,ESE,112,0.0,0.0,72,0.00,,CLR,0.00,VWS V14.01,2013-08-09 04:43:00,
2013-08-08 21:48:00,68.4,59.0,29.89,ESE,112,0.0,0.0,72,0.00,,CLR,0.00,VWS V14.01,2013-08-09 04:48:00,
2013-08-08 21:53:00,67.9,58.5,29.89,ESE,112,0.0,0.0,72,0.00,,CLR,0.00,VWS V14.01,2013-08-09 04:53:00,
2013-08-08 21:58:00,67.9,59.7,29.89,ESE,112,0.0,0.0,75,0.00,,CLR,0.00,VWS V14.01,2013-08-09 04:58:00,
2013-08-08 22:03:00,67.4,59.2,29.89,ESE,112,0.0,0.0,75,0.00,,CLR,0.00,VWS V14.01,2013-08-09 05:03:00,
2013-08-08 22:08:00,67.1,58.9,29.89,ESE,112,0.0,0.0,75,0.00,,CLR,0.00,VWS V14.01,2013-08-09 05:08:00,
2013-08-08 22:13:00,67.0,58.8,29.89,ESE,112,0.0,0.0,75,0.00,,CLR,0.00,VWS V14.01,2013-08-09 05:13:00,
2013-08-08 22:18:00,66.3,58.2,29.89,ESE,112,0.0,0.0,75,0.00,,CLR,0.00,VWS V14.01,2013-08-09 05:18:00,
2013-08-08 22:24:00,66.0,57.9,29.89,ESE,112,0.0,0.0,75,0.00,,CLR,0.00,VWS V14.01,2013-08-09 05:24:00,
2013-08-08 22:29:00,66.0,57.9,29.89,ESE,112,0.0,0.0,75,0.00,,CLR,0.00,VWS V14.01,2013-08-09 05:29:00,
2013-08-08 22:34:00,65.5,57.4,29.89,ESE,112,0.0,0.0,75,0.00,,CLR,0.00,VWS V14.01,2013-08-09 05:34:00,
2013-08-08 22:39:00,65.3,57.2,29.89,ESE,112,0.0,0.0,75,0.00,,CLR,0.00,VWS V14.01,2013-08-09 05:39:00,
2013-08-08 22:44:00,65.3,57.2,29.89,ESE,112,0.0,0.0,75,0.00,,CLR,0.00,VWS V14.01,2013-08-09 05:44:00,
2013-08-08 22:49:00,65.3,57.2,29.89,ESE,112,0.0,0.0,75,0.00,,CLR,0.00,VWS V14.01,2013-08-09 05:49:00,
2013-08-08 22:54:00,64.5,57.5,29.89,ESE,112,0.0,0.0,78,0.00,,CLR,0.00,VWS V14.01,2013-08-09 05:54:00,
2013-08-08 22:59:00,64.5,57.5,29.89,ESE,112,0.0,0.0,78,0.00,,CLR,0.00,VWS V14.01,2013-08-09 05:59:00,
2013-08-08 23:04:00,64.4,57.4,29.89,ESE,112,0.0,0.0,78,0.00,,CLR,0.00,VWS V14.01,2013-08-09 06:04:00,
2013-08-08 23:09:00,63.9,56.9,29.89,ESE,112,0.0,0.0,78,0.00,,CLR,0.00,VWS V14.01,2013-08-09 06:09:00,
2013-08-08 23:14:00,63.7,56.7,29.89,ESE,112,0.0,0.0,78,0.00,,CLR,0.00,VWS V14.01,2013-08-09 06:14:00,
2013-08-08 23:19:00,63.4,56.4,29.89,ESE,112,0.0,0.0,78,0.00,,CLR,0.00,VWS V14.01,2013-08-09 06:19:00,
2013-08-08 23:24:00,63.3,56.3,29.89,ESE,112,0.0,0.0,78,0.00,,CLR,0.00,VWS V14.01,2013-08-09 06:24:00,
2013-08-08 23:29:00,63.1,56.1,29.89,ESE,112,0.0,0.0,78,0.00,,CLR,0.00,VWS V14.01,2013-08-09 06:29:00,
2013-08-08 23:35:00,63.0,56.4,29.89,ESE,112,0.0,0.0,79,0.00,,CLR,0.00,VWS V14.01,2013-08-09 06:35:00,
2013-08-08 23:40:00,62.8,56.2,29.89,ESE,112,0.0,0.0,79,0.00,,CLR,0.00,VWS V14.01,2013-08-09 06:40:00,
2013-08-08 23:45:00,62.6,56.0,29.89,ESE,112,0.0,0.0,79,0.00,,CLR,0.00,VWS V14.01,2013-08-09 06:45:00,
2013-08-08 23:50:00,62.3,56.1,29.90,ESE,112,0.0,0.0,80,0.00,,CLR,0.00,VWS V14.01,2013-08-09 06:50:00,
2013-08-08 23:55:00,62.3,56.1,29.90,ESE,112,0.0,0.0,80,0.00,,CLR,0.00,VWS V14.01,2013-08-09 06:55:00,